Shellbrook, Canada
Current Conditions -  °F | °C
As of 6:27 AM on Thursday 18 Dec 2014 (Local Time) from CYPA Reporting Station
Light Snow Light Snow  
Wind Chill:   Ceiling: 500
Heat Index: 18°   Visibility: 8mi
Dew Point: 16°   Wind: 6mph
Humidity: 93%   Direction: 200°SSW
Pressure: 29.95"   Gusts: NA
Location:  53.22°N, 106.4°W
Report Text: CYPA 181227Z 20005KT 8SM -SN OVC005 M08/M09 A2995 RMK ST8 SLP173
Loading
Personal Weather Stations






























Interactive Weather Map New forecast layout! Learn more

10-Day Weather Forecast

Advertisements
Track Severe Weather on mobile